sensor_id;sensor_type;location;lat;lon;timestamp;temperature;humidity
35541;DHT22;21650;48.840;9.162;2022-10-16T00:01:21;15.40;99.90
35541;DHT22;21650;48.840;9.162;2022-10-16T00:03:48;15.40;99.90
35541;DHT22;21650;48.840;9.162;2022-10-16T00:06:14;15.30;99.90
35541;DHT22;21650;48.840;9.162;2022-10-16T00:08:41;15.40;99.90
35541;DHT22;21650;48.840;9.162;2022-10-16T00:11:16;15.30;99.90
35541;DHT22;21650;48.840;9.162;2022-10-16T00:13:43;15.30;99.90
35541;DHT22;21650;48.840;9.162;2022-10-16T00:16:12;15.20;99.90
35541;DHT22;21650;48.840;9.162;2022-10-16T00:18:38;15.20;99.90
35541;DHT22;21650;48.840;9.162;2022-10-16T00:21:07;15.20;99.90
35541;DHT22;21650;48.840;9.162;2022-10-16T00:23:33;15.10;99.90
35541;DHT22;21650;48.840;9.162;2022-10-16T02:17:14;14.80;99.90
35541;DHT22;21650;48.840;9.162;2022-10-16T02:19:41;14.80;99.90
35541;DHT22;21650;48.840;9.162;2022-10-16T02:22:10;14.90;99.90
35541;DHT22;21650;48.840;9.162;2022-10-16T02:24:53;14.90;99.90
35541;DHT22;21650;48.840;9.162;2022-10-16T02:30:33;14.80;99.90
35541;DHT22;21650;48.840;9.162;2022-10-16T02:33:01;14.80;99.90
35541;DHT22;21650;48.840;9.162;2022-10-16T02:35:28;14.80;99.90
35541;DHT22;21650;48.840;9.162;2022-10-16T02:37:55;14.80;99.90
35541;DHT22;21650;48.840;9.162;2022-10-16T02:40:23;14.80;99.90
35541;DHT22;21650;48.840;9.162;2022-10-16T02:42:53;14.90;99.90
35541;DHT22;21650;48.840;9.162;2022-10-16T02:45:21;14.80;99.90
35541;DHT22;21650;48.840;9.162;2022-10-16T02:47:47;14.90;99.90
35541;DHT22;21650;48.840;9.162;2022-10-16T02:50:12;14.80;99.90
35541;DHT22;21650;48.840;9.162;2022-10-16T02:52:38;14.80;99.90
35541;DHT22;21650;48.840;9.162;2022-10-16T02:55:04;14.80;99.90
35541;DHT22;21650;48.840;9.162;2022-10-16T02:57:30;14.80;99.90
35541;DHT22;21650;48.840;9.162;2022-10-16T02:59:57;14.80;99.90
35541;DHT22;21650;48.840;9.162;2022-10-16T03:02:22;14.80;99.90
35541;DHT22;21650;48.840;9.162;2022-10-16T03:04:48;14.70;99.90
35541;DHT22;21650;48.840;9.162;2022-10-16T03:07:14;14.80;99.90
35541;DHT22;21650;48.840;9.162;2022-10-16T03:09:40;14.80;99.90
35541;DHT22;21650;48.840;9.162;2022-10-16T03:12:05;14.70;99.90
35541;DHT22;21650;48.840;9.162;2022-10-16T03:14:32;14.70;99.90
35541;DHT22;21650;48.840;9.162;2022-10-16T03:16:57;14.70;99.90
35541;DHT22;21650;48.840;9.162;2022-10-16T03:19:23;14.70;99.90
35541;DHT22;21650;48.840;9.162;2022-10-16T03:21:49;14.70;99.90
35541;DHT22;21650;48.840;9.162;2022-10-16T03:24:14;14.70;99.90
35541;DHT22;21650;48.840;9.162;2022-10-16T03:26:40;14.70;99.90
35541;DHT22;21650;48.840;9.162;2022-10-16T03:29:06;14.60;99.90
35541;DHT22;21650;48.840;9.162;2022-10-16T03:31:32;14.60;99.90
35541;DHT22;21650;48.840;9.162;2022-10-16T03:33:57;14.60;99.90
35541;DHT22;21650;48.840;9.162;2022-10-16T03:36:23;14.60;99.90
35541;DHT22;21650;48.840;9.162;2022-10-16T03:38:49;14.60;99.90
35541;DHT22;21650;48.840;9.162;2022-10-16T03:41:14;14.60;99.90
35541;DHT22;21650;48.840;9.162;2022-10-16T03:43:40;14.60;99.90
35541;DHT22;21650;48.840;9.162;2022-10-16T03:46:06;14.50;99.90
35541;DHT22;21650;48.840;9.162;2022-10-16T03:48:31;14.60;99.90
35541;DHT22;21650;48.840;9.162;2022-10-16T03:50:57;14.50;99.90
35541;DHT22;21650;48.840;9.162;2022-10-16T03:53:23;14.50;99.90
35541;DHT22;21650;48.840;9.162;2022-10-16T03:55:49;14.50;99.90
35541;DHT22;21650;48.840;9.162;2022-10-16T03:58:15;14.50;99.90
35541;DHT22;21650;48.840;9.162;2022-10-16T04:00:42;14.50;99.90
35541;DHT22;21650;48.840;9.162;2022-10-16T04:03:08;14.40;99.90
35541;DHT22;21650;48.840;9.162;2022-10-16T04:05:34;14.40;99.90
35541;DHT22;21650;48.840;9.162;2022-10-16T04:08:00;14.50;99.90
35541;DHT22;21650;48.840;9.162;2022-10-16T04:10:26;14.50;99.90
35541;DHT22;21650;48.840;9.162;2022-10-16T04:12:51;14.50;99.90
35541;DHT22;21650;48.840;9.162;2022-10-16T04:15:17;14.40;99.90
35541;DHT22;21650;48.840;9.162;2022-10-16T04:17:43;14.40;99.90
35541;DHT22;21650;48.840;9.162;2022-10-16T04:20:08;14.40;99.90
35541;DHT22;21650;48.840;9.162;2022-10-16T04:22:34;14.40;99.90
35541;DHT22;21650;48.840;9.162;2022-10-16T04:25:00;14.30;99.90
35541;DHT22;21650;48.840;9.162;2022-10-16T04:27:25;14.40;99.90
35541;DHT22;21650;48.840;9.162;2022-10-16T04:29:51;14.30;99.90
35541;DHT22;21650;48.840;9.162;2022-10-16T04:32:16;14.40;99.90
35541;DHT22;21650;48.840;9.162;2022-10-16T04:34:42;14.40;99.90
35541;DHT22;21650;48.840;9.162;2022-10-16T04:37:07;14.40;99.90
35541;DHT22;21650;48.840;9.162;2022-10-16T04:39:33;14.40;99.90
35541;DHT22;21650;48.840;9.162;2022-10-16T04:41:59;14.40;99.90
35541;DHT22;21650;48.840;9.162;2022-10-16T04:44:24;14.40;99.90
35541;DHT22;21650;48.840;9.162;2022-10-16T04:46:51;14.40;99.90
35541;DHT22;21650;48.840;9.162;2022-10-16T04:49:16;14.50;99.90
35541;DHT22;21650;48.840;9.162;2022-10-16T04:51:42;14.40;99.90
35541;DHT22;21650;48.840;9.162;2022-10-16T04:54:08;14.40;99.90
35541;DHT22;21650;48.840;9.162;2022-10-16T04:56:34;14.40;99.90
35541;DHT22;21650;48.840;9.162;2022-10-16T04:59:05;14.40;99.90
35541;DHT22;21650;48.840;9.162;2022-10-16T05:01:31;14.40;99.90
35541;DHT22;21650;48.840;9.162;2022-10-16T05:03:56;14.40;99.90
35541;DHT22;21650;48.840;9.162;2022-10-16T05:06:22;14.40;99.90
35541;DHT22;21650;48.840;9.162;2022-10-16T05:08:47;14.40;99.90
35541;DHT22;21650;48.840;9.162;2022-10-16T05:11:13;14.40;99.90
35541;DHT22;21650;48.840;9.162;2022-10-16T05:13:38;14.50;99.90
35541;DHT22;21650;48.840;9.162;2022-10-16T05:16:04;14.40;99.90
35541;DHT22;21650;48.840;9.162;2022-10-16T05:18:30;14.40;99.90
35541;DHT22;21650;48.840;9.162;2022-10-16T05:20:55;14.40;99.90
35541;DHT22;21650;48.840;9.162;2022-10-16T05:23:21;14.40;99.90
35541;DHT22;21650;48.840;9.162;2022-10-16T05:25:57;14.40;99.90
35541;DHT22;21650;48.840;9.162;2022-10-16T05:28:24;14.30;99.90
35541;DHT22;21650;48.840;9.162;2022-10-16T05:30:50;14.30;99.90
35541;DHT22;21650;48.840;9.162;2022-10-16T05:33:16;14.30;99.90
35541;DHT22;21650;48.840;9.162;2022-10-16T05:35:42;14.30;99.90
35541;DHT22;21650;48.840;9.162;2022-10-16T05:38:07;14.30;99.90
35541;DHT22;21650;48.840;9.162;2022-10-16T05:40:33;14.30;99.90
35541;DHT22;21650;48.840;9.162;2022-10-16T05:42:58;14.30;99.90
35541;DHT22;21650;48.840;9.162;2022-10-16T05:45:24;14.20;99.90
35541;DHT22;21650;48.840;9.162;2022-10-16T05:47:50;14.20;99.90
35541;DHT22;21650;48.840;9.162;2022-10-16T05:50:16;14.20;99.90
35541;DHT22;21650;48.840;9.162;2022-10-16T05:52:42;14.30;99.90
35541;DHT22;21650;48.840;9.162;2022-10-16T05:55:08;14.30;99.90
35541;DHT22;21650;48.840;9.162;2022-10-16T05:57:33;14.30;99.90
35541;DHT22;21650;48.840;9.162;2022-10-16T05:59:59;14.30;99.90
35541;DHT22;21650;48.840;9.162;2022-10-16T06:02:25;14.30;99.90
35541;DHT22;21650;48.840;9.162;2022-10-16T06:04:52;14.30;99.90
35541;DHT22;21650;48.840;9.162;2022-10-16T06:07:19;14.30;99.90
35541;DHT22;21650;48.840;9.162;2022-10-16T06:09:48;14.40;99.90
35541;DHT22;21650;48.840;9.162;2022-10-16T06:12:14;14.30;99.90
35541;DHT22;21650;48.840;9.162;2022-10-16T06:14:40;14.40;99.90
35541;DHT22;21650;48.840;9.162;2022-10-16T06:17:06;14.40;99.90
35541;DHT22;21650;48.840;9.162;2022-10-16T06:19:31;14.30;99.90
35541;DHT22;21650;48.840;9.162;2022-10-16T06:21:57;14.40;99.90
35541;DHT22;21650;48.840;9.162;2022-10-16T06:24:24;14.40;99.90
35541;DHT22;21650;48.840;9.162;2022-10-16T06:29:25;14.40;99.90
35541;DHT22;21650;48.840;9.162;2022-10-16T06:31:51;14.40;99.90
35541;DHT22;21650;48.840;9.162;2022-10-16T06:34:18;14.40;99.90
35541;DHT22;21650;48.840;9.162;2022-10-16T06:36:43;14.50;99.90
35541;DHT22;21650;48.840;9.162;2022-10-16T06:39:09;14.50;99.90
35541;DHT22;21650;48.840;9.162;2022-10-16T06:41:34;14.60;99.90
35541;DHT22;21650;48.840;9.162;2022-10-16T06:44:00;14.60;99.90
35541;DHT22;21650;48.840;9.162;2022-10-16T06:46:27;14.70;99.90
35541;DHT22;21650;48.840;9.162;2022-10-16T06:48:53;14.70;99.90
35541;DHT22;21650;48.840;9.162;2022-10-16T06:51:20;14.70;99.90
35541;DHT22;21650;48.840;9.162;2022-10-16T06:53:48;14.70;99.90
35541;DHT22;21650;48.840;9.162;2022-10-16T06:56:25;14.80;99.90
35541;DHT22;21650;48.840;9.162;2022-10-16T06:58:52;14.80;99.90
35541;DHT22;21650;48.840;9.162;2022-10-16T07:01:22;14.80;99.90
35541;DHT22;21650;48.840;9.162;2022-10-16T07:03:48;14.90;99.90
35541;DHT22;21650;48.840;9.162;2022-10-16T07:06:16;15.00;99.90
35541;DHT22;21650;48.840;9.162;2022-10-16T07:08:44;15.00;99.90
35541;DHT22;21650;48.840;9.162;2022-10-16T07:11:12;15.20;99.90
35541;DHT22;21650;48.840;9.162;2022-10-16T07:13:40;15.20;99.90
35541;DHT22;21650;48.840;9.162;2022-10-16T07:16:08;15.30;99.90
35541;DHT22;21650;48.840;9.162;2022-10-16T07:18:34;15.30;99.90
35541;DHT22;21650;48.840;9.162;2022-10-16T07:21:04;15.30;99.90
35541;DHT22;21650;48.840;9.162;2022-10-16T07:23:30;15.30;99.90
35541;DHT22;21650;48.840;9.162;2022-10-16T07:25:56;15.40;99.90
35541;DHT22;21650;48.840;9.162;2022-10-16T07:28:21;15.30;99.90
35541;DHT22;21650;48.840;9.162;2022-10-16T07:30:47;15.30;99.90
35541;DHT22;21650;48.840;9.162;2022-10-16T07:33:13;15.40;99.90
35541;DHT22;21650;48.840;9.162;2022-10-16T07:35:50;15.30;99.90
35541;DHT22;21650;48.840;9.162;2022-10-16T07:38:16;15.30;99.90
35541;DHT22;21650;48.840;9.162;2022-10-16T07:40:42;15.30;99.90
35541;DHT22;21650;48.840;9.162;2022-10-16T07:43:08;15.30;99.90
35541;DHT22;21650;48.840;9.162;2022-10-16T07:45:33;15.30;99.90
35541;DHT22;21650;48.840;9.162;2022-10-16T07:47:59;15.30;99.90
35541;DHT22;21650;48.840;9.162;2022-10-16T07:50:24;15.30;99.90
35541;DHT22;21650;48.840;9.162;2022-10-16T07:52:50;15.40;99.90
35541;DHT22;21650;48.840;9.162;2022-10-16T07:55:15;15.50;99.90
35541;DHT22;21650;48.840;9.162;2022-10-16T07:57:41;15.60;99.90
35541;DHT22;21650;48.840;9.162;2022-10-16T08:00:07;15.60;99.90
35541;DHT22;21650;48.840;9.162;2022-10-16T08:02:33;15.70;99.90
35541;DHT22;21650;48.840;9.162;2022-10-16T08:04:58;15.90;99.90
35541;DHT22;21650;48.840;9.162;2022-10-16T08:07:24;16.00;99.90
35541;DHT22;21650;48.840;9.162;2022-10-16T08:09:50;16.20;99.90
35541;DHT22;21650;48.840;9.162;2022-10-16T08:12:17;16.20;99.90
35541;DHT22;21650;48.840;9.162;2022-10-16T08:14:42;16.30;99.90
35541;DHT22;21650;48.840;9.162;2022-10-16T08:17:08;16.40;99.90
35541;DHT22;21650;48.840;9.162;2022-10-16T08:19:33;16.50;99.90
35541;DHT22;21650;48.840;9.162;2022-10-16T08:22:00;16.60;99.90
35541;DHT22;21650;48.840;9.162;2022-10-16T08:24:26;16.80;99.90
35541;DHT22;21650;48.840;9.162;2022-10-16T08:26:53;16.80;99.90
35541;DHT22;21650;48.840;9.162;2022-10-16T08:29:19;16.80;99.90
35541;DHT22;21650;48.840;9.162;2022-10-16T08:31:45;17.00;99.90
35541;DHT22;21650;48.840;9.162;2022-10-16T08:34:10;17.10;99.90
35541;DHT22;21650;48.840;9.162;2022-10-16T08:36:36;17.20;99.90
35541;DHT22;21650;48.840;9.162;2022-10-16T08:39:01;17.40;99.90
35541;DHT22;21650;48.840;9.162;2022-10-16T08:41:47;17.40;99.90
35541;DHT22;21650;48.840;9.162;2022-10-16T08:44:56;17.40;99.90
35541;DHT22;21650;48.840;9.162;2022-10-16T08:50:25;17.60;99.90
35541;DHT22;21650;48.840;9.162;2022-10-16T08:52:53;17.70;99.90
35541;DHT22;21650;48.840;9.162;2022-10-16T08:58:13;17.90;99.90
35541;DHT22;21650;48.840;9.162;2022-10-16T09:00:39;17.90;99.90
35541;DHT22;21650;48.840;9.162;2022-10-16T09:03:31;17.90;99.90
35541;DHT22;21650;48.840;9.162;2022-10-16T09:06:26;17.90;99.90
35541;DHT22;21650;48.840;9.162;2022-10-16T09:14:45;17.90;99.90
35541;DHT22;21650;48.840;9.162;2022-10-16T09:17:33;17.80;99.90
35541;DHT22;21650;48.840;9.162;2022-10-16T09:23:21;18.00;99.90
35541;DHT22;21650;48.840;9.162;2022-10-16T09:25:49;18.00;99.90
35541;DHT22;21650;48.840;9.162;2022-10-16T09:28:17;18.00;99.90
35541;DHT22;21650;48.840;9.162;2022-10-16T09:30:44;18.00;99.90
35541;DHT22;21650;48.840;9.162;2022-10-16T09:33:11;18.10;99.90
35541;DHT22;21650;48.840;9.162;2022-10-16T09:35:45;18.10;99.90
35541;DHT22;21650;48.840;9.162;2022-10-16T09:38:30;18.10;99.90
35541;DHT22;21650;48.840;9.162;2022-10-16T09:40:57;18.10;99.90
35541;DHT22;21650;48.840;9.162;2022-10-16T09:43:34;18.10;99.90
35541;DHT22;21650;48.840;9.162;2022-10-16T09:46:05;18.10;99.90
35541;DHT22;21650;48.840;9.162;2022-10-16T09:48:44;18.10;99.90
35541;DHT22;21650;48.840;9.162;2022-10-16T09:51:23;18.00;99.90
35541;DHT22;21650;48.840;9.162;2022-10-16T09:53:55;18.10;99.90
35541;DHT22;21650;48.840;9.162;2022-10-16T09:56:24;18.10;99.90
35541;DHT22;21650;48.840;9.162;2022-10-16T09:58:58;18.20;99.90
35541;DHT22;21650;48.840;9.162;2022-10-16T10:01:30;18.30;99.90
35541;DHT22;21650;48.840;9.162;2022-10-16T10:03:57;18.40;99.90
35541;DHT22;21650;48.840;9.162;2022-10-16T10:08:58;18.70;99.90
35541;DHT22;21650;48.840;9.162;2022-10-16T10:11:46;18.70;99.90
35541;DHT22;21650;48.840;9.162;2022-10-16T10:17:09;18.90;99.90
35541;DHT22;21650;48.840;9.162;2022-10-16T10:25:00;19.20;99.90
35541;DHT22;21650;48.840;9.162;2022-10-16T10:27:52;19.30;99.90
35541;DHT22;21650;48.840;9.162;2022-10-16T10:30:49;19.50;99.90
35541;DHT22;21650;48.840;9.162;2022-10-16T10:33:28;19.70;99.90
35541;DHT22;21650;48.840;9.162;2022-10-16T10:46:34;20.40;99.90
35541;DHT22;21650;48.840;9.162;2022-10-16T10:51:49;20.60;99.90
35541;DHT22;21650;48.840;9.162;2022-10-16T10:54:24;20.70;99.90
35541;DHT22;21650;48.840;9.162;2022-10-16T10:57:10;20.80;99.90
35541;DHT22;21650;48.840;9.162;2022-10-16T10:59:48;20.80;99.90
35541;DHT22;21650;48.840;9.162;2022-10-16T11:05:08;20.80;99.90
35541;DHT22;21650;48.840;9.162;2022-10-16T11:07:48;20.90;99.90
35541;DHT22;21650;48.840;9.162;2022-10-16T11:10:20;20.90;99.90
35541;DHT22;21650;48.840;9.162;2022-10-16T11:12:51;20.90;99.90
35541;DHT22;21650;48.840;9.162;2022-10-16T11:15:31;20.90;99.90
35541;DHT22;21650;48.840;9.162;2022-10-16T11:18:04;20.70;99.90
35541;DHT22;21650;48.840;9.162;2022-10-16T11:20:40;20.80;99.90
35541;DHT22;21650;48.840;9.162;2022-10-16T11:23:23;20.60;99.90
35541;DHT22;21650;48.840;9.162;2022-10-16T11:25:51;20.90;99.90
35541;DHT22;21650;48.840;9.162;2022-10-16T11:28:27;20.90;99.90
35541;DHT22;21650;48.840;9.162;2022-10-16T11:31:07;21.00;99.90
35541;DHT22;21650;48.840;9.162;2022-10-16T11:36:53;21.20;99.90
35541;DHT22;21650;48.840;9.162;2022-10-16T11:41:51;21.00;99.90
35541;DHT22;21650;48.840;9.162;2022-10-16T11:49:32;21.30;99.90
35541;DHT22;21650;48.840;9.162;2022-10-16T11:52:10;21.10;99.90
35541;DHT22;21650;48.840;9.162;2022-10-16T11:57:27;21.30;99.90
35541;DHT22;21650;48.840;9.162;2022-10-16T12:00:02;21.50;99.90
35541;DHT22;21650;48.840;9.162;2022-10-16T12:02:48;21.60;99.90
35541;DHT22;21650;48.840;9.162;2022-10-16T12:08:05;21.80;99.90
35541;DHT22;21650;48.840;9.162;2022-10-16T12:10:32;21.70;99.90
35541;DHT22;21650;48.840;9.162;2022-10-16T12:13:44;21.70;99.90
35541;DHT22;21650;48.840;9.162;2022-10-16T12:15:51;21.70;99.90
35541;DHT22;21650;48.840;9.162;2022-10-16T12:18:23;21.80;99.90
35541;DHT22;21650;48.840;9.162;2022-10-16T12:20:57;21.80;99.90
35541;DHT22;21650;48.840;9.162;2022-10-16T12:23:31;21.90;99.90
35541;DHT22;21650;48.840;9.162;2022-10-16T12:25:58;21.80;99.90
35541;DHT22;21650;48.840;9.162;2022-10-16T12:28:43;21.90;99.90
35541;DHT22;21650;48.840;9.162;2022-10-16T12:31:11;21.80;99.90
35541;DHT22;21650;48.840;9.162;2022-10-16T12:33:40;21.80;99.90
35541;DHT22;21650;48.840;9.162;2022-10-16T12:38:49;21.80;99.90
35541;DHT22;21650;48.840;9.162;2022-10-16T12:41:31;21.80;99.90
35541;DHT22;21650;48.840;9.162;2022-10-16T12:43:58;21.70;99.90
35541;DHT22;21650;48.840;9.162;2022-10-16T12:51:53;21.90;99.90
35541;DHT22;21650;48.840;9.162;2022-10-16T12:54:30;21.90;99.90
35541;DHT22;21650;48.840;9.162;2022-10-16T13:00:07;22.00;99.90
35541;DHT22;21650;48.840;9.162;2022-10-16T13:05:51;22.20;99.90
35541;DHT22;21650;48.840;9.162;2022-10-16T13:11:19;22.00;99.90
35541;DHT22;21650;48.840;9.162;2022-10-16T13:14:06;21.90;99.90
35541;DHT22;21650;48.840;9.162;2022-10-16T13:17:07;22.10;99.90
35541;DHT22;21650;48.840;9.162;2022-10-16T13:27:56;22.20;99.90
35541;DHT22;21650;48.840;9.162;2022-10-16T13:30:25;22.20;99.90
35541;DHT22;21650;48.840;9.162;2022-10-16T13:33:06;22.20;99.90
35541;DHT22;21650;48.840;9.162;2022-10-16T13:35:35;22.20;99.90
35541;DHT22;21650;48.840;9.162;2022-10-16T13:38:15;22.20;99.90
35541;DHT22;21650;48.840;9.162;2022-10-16T13:41:17;22.10;99.90
35541;DHT22;21650;48.840;9.162;2022-10-16T13:43:51;22.10;99.90
35541;DHT22;21650;48.840;9.162;2022-10-16T13:46:20;22.10;99.90
35541;DHT22;21650;48.840;9.162;2022-10-16T13:48:58;22.10;99.90
35541;DHT22;21650;48.840;9.162;2022-10-16T13:51:26;22.10;99.90
35541;DHT22;21650;48.840;9.162;2022-10-16T13:53:52;22.10;99.90
35541;DHT22;21650;48.840;9.162;2022-10-16T13:56:20;22.20;99.90
35541;DHT22;21650;48.840;9.162;2022-10-16T13:58:46;22.20;99.90
35541;DHT22;21650;48.840;9.162;2022-10-16T14:01:30;22.20;99.90
35541;DHT22;21650;48.840;9.162;2022-10-16T14:04:06;22.00;99.90
35541;DHT22;21650;48.840;9.162;2022-10-16T14:06:32;22.10;99.90
35541;DHT22;21650;48.840;9.162;2022-10-16T14:09:06;22.00;99.90
35541;DHT22;21650;48.840;9.162;2022-10-16T14:11:32;21.90;99.90
35541;DHT22;21650;48.840;9.162;2022-10-16T14:13:58;21.70;99.90
35541;DHT22;21650;48.840;9.162;2022-10-16T14:16:27;21.80;99.90
35541;DHT22;21650;48.840;9.162;2022-10-16T14:19:02;21.90;99.90
35541;DHT22;21650;48.840;9.162;2022-10-16T14:21:29;21.80;99.90
35541;DHT22;21650;48.840;9.162;2022-10-16T14:23:56;21.70;99.90
35541;DHT22;21650;48.840;9.162;2022-10-16T14:26:27;21.60;99.90
35541;DHT22;21650;48.840;9.162;2022-10-16T14:29:26;21.60;99.90
35541;DHT22;21650;48.840;9.162;2022-10-16T14:31:57;21.70;99.90
35541;DHT22;21650;48.840;9.162;2022-10-16T14:34:32;21.70;99.90
35541;DHT22;21650;48.840;9.162;2022-10-16T14:37:24;21.60;99.90
35541;DHT22;21650;48.840;9.162;2022-10-16T14:39:51;21.70;99.90
35541;DHT22;21650;48.840;9.162;2022-10-16T14:42:18;21.60;99.90
35541;DHT22;21650;48.840;9.162;2022-10-16T14:44:46;21.70;99.90
35541;DHT22;21650;48.840;9.162;2022-10-16T14:47:17;21.50;99.90
35541;DHT22;21650;48.840;9.162;2022-10-16T14:49:47;21.60;99.90
35541;DHT22;21650;48.840;9.162;2022-10-16T14:52:13;21.70;99.90
35541;DHT22;21650;48.840;9.162;2022-10-16T14:54:40;21.60;99.90
35541;DHT22;21650;48.840;9.162;2022-10-16T14:57:05;21.60;99.90
35541;DHT22;21650;48.840;9.162;2022-10-16T14:59:41;21.60;99.90
35541;DHT22;21650;48.840;9.162;2022-10-16T15:02:31;21.60;99.90
35541;DHT22;21650;48.840;9.162;2022-10-16T15:04:58;21.50;99.90
35541;DHT22;21650;48.840;9.162;2022-10-16T15:07:27;21.70;99.90
35541;DHT22;21650;48.840;9.162;2022-10-16T15:09:53;21.50;99.90
35541;DHT22;21650;48.840;9.162;2022-10-16T15:12:19;21.50;99.90
35541;DHT22;21650;48.840;9.162;2022-10-16T15:14:44;21.50;99.90
35541;DHT22;21650;48.840;9.162;2022-10-16T15:17:11;21.50;99.90
35541;DHT22;21650;48.840;9.162;2022-10-16T15:19:36;21.60;99.90
35541;DHT22;21650;48.840;9.162;2022-10-16T15:22:02;21.50;99.90
35541;DHT22;21650;48.840;9.162;2022-10-16T15:24:28;21.40;99.90
35541;DHT22;21650;48.840;9.162;2022-10-16T15:26:53;21.40;99.90
35541;DHT22;21650;48.840;9.162;2022-10-16T15:29:19;21.20;99.90
35541;DHT22;21650;48.840;9.162;2022-10-16T15:31:44;21.20;99.90
35541;DHT22;21650;48.840;9.162;2022-10-16T15:34:13;21.30;99.90
35541;DHT22;21650;48.840;9.162;2022-10-16T15:36:39;21.10;99.90
35541;DHT22;21650;48.840;9.162;2022-10-16T15:39:12;21.10;99.90
35541;DHT22;21650;48.840;9.162;2022-10-16T15:41:37;21.10;99.90
35541;DHT22;21650;48.840;9.162;2022-10-16T15:44:03;21.10;99.90
35541;DHT22;21650;48.840;9.162;2022-10-16T15:46:29;21.10;99.90
35541;DHT22;21650;48.840;9.162;2022-10-16T15:48:57;21.00;99.90
35541;DHT22;21650;48.840;9.162;2022-10-16T15:51:23;20.90;99.90
35541;DHT22;21650;48.840;9.162;2022-10-16T15:53:49;20.90;99.90
35541;DHT22;21650;48.840;9.162;2022-10-16T15:56:16;20.80;99.90
35541;DHT22;21650;48.840;9.162;2022-10-16T15:58:42;20.70;99.90
35541;DHT22;21650;48.840;9.162;2022-10-16T16:01:08;20.70;99.90
35541;DHT22;21650;48.840;9.162;2022-10-16T16:03:37;20.60;99.90
35541;DHT22;21650;48.840;9.162;2022-10-16T16:06:07;20.60;99.90
35541;DHT22;21650;48.840;9.162;2022-10-16T16:08:34;20.50;99.90
35541;DHT22;21650;48.840;9.162;2022-10-16T16:11:07;20.40;99.90
35541;DHT22;21650;48.840;9.162;2022-10-16T16:13:33;20.30;99.90
35541;DHT22;21650;48.840;9.162;2022-10-16T16:15:59;20.20;99.90
35541;DHT22;21650;48.840;9.162;2022-10-16T16:18:25;20.10;99.90
35541;DHT22;21650;48.840;9.162;2022-10-16T16:20:51;20.00;99.90
35541;DHT22;21650;48.840;9.162;2022-10-16T16:23:17;19.80;99.90
35541;DHT22;21650;48.840;9.162;2022-10-16T16:25:44;19.70;99.90
35541;DHT22;21650;48.840;9.162;2022-10-16T16:28:10;19.50;99.90
35541;DHT22;21650;48.840;9.162;2022-10-16T16:30:39;19.40;99.90
35541;DHT22;21650;48.840;9.162;2022-10-16T16:33:05;19.20;99.90
35541;DHT22;21650;48.840;9.162;2022-10-16T16:35:30;19.10;99.90
35541;DHT22;21650;48.840;9.162;2022-10-16T16:37:56;19.00;99.90
35541;DHT22;21650;48.840;9.162;2022-10-16T16:40:21;18.90;99.90
35541;DHT22;21650;48.840;9.162;2022-10-16T16:42:48;18.90;99.90
35541;DHT22;21650;48.840;9.162;2022-10-16T16:45:14;18.80;99.90
35541;DHT22;21650;48.840;9.162;2022-10-16T16:47:39;18.70;99.90
35541;DHT22;21650;48.840;9.162;2022-10-16T16:50:05;18.70;99.90
35541;DHT22;21650;48.840;9.162;2022-10-16T16:52:32;18.60;99.90
35541;DHT22;21650;48.840;9.162;2022-10-16T16:54:58;18.60;99.90
35541;DHT22;21650;48.840;9.162;2022-10-16T16:57:23;18.50;99.90
35541;DHT22;21650;48.840;9.162;2022-10-16T16:59:50;18.50;99.90
35541;DHT22;21650;48.840;9.162;2022-10-16T17:02:16;18.50;99.90
35541;DHT22;21650;48.840;9.162;2022-10-16T17:04:42;18.40;99.90
35541;DHT22;21650;48.840;9.162;2022-10-16T17:07:07;18.40;99.90
35541;DHT22;21650;48.840;9.162;2022-10-16T17:09:33;18.30;99.90
35541;DHT22;21650;48.840;9.162;2022-10-16T17:11:59;18.20;99.90
35541;DHT22;21650;48.840;9.162;2022-10-16T17:14:24;18.10;99.90
35541;DHT22;21650;48.840;9.162;2022-10-16T17:16:51;18.00;99.90
35541;DHT22;21650;48.840;9.162;2022-10-16T17:19:18;18.00;99.90
35541;DHT22;21650;48.840;9.162;2022-10-16T17:21:47;18.00;99.90
35541;DHT22;21650;48.840;9.162;2022-10-16T17:24:12;17.90;99.90
35541;DHT22;21650;48.840;9.162;2022-10-16T17:26:38;17.80;99.90
35541;DHT22;21650;48.840;9.162;2022-10-16T17:29:06;17.80;99.90
35541;DHT22;21650;48.840;9.162;2022-10-16T17:31:34;17.70;99.90
35541;DHT22;21650;48.840;9.162;2022-10-16T17:34:01;17.60;99.90
35541;DHT22;21650;48.840;9.162;2022-10-16T17:36:27;17.50;99.90
35541;DHT22;21650;48.840;9.162;2022-10-16T17:38:58;17.40;99.90
35541;DHT22;21650;48.840;9.162;2022-10-16T17:41:26;17.40;99.90
35541;DHT22;21650;48.840;9.162;2022-10-16T17:43:52;17.30;99.90
35541;DHT22;21650;48.840;9.162;2022-10-16T17:46:20;17.30;99.90
35541;DHT22;21650;48.840;9.162;2022-10-16T17:48:48;17.20;99.90
35541;DHT22;21650;48.840;9.162;2022-10-16T17:51:18;17.20;99.90
35541;DHT22;21650;48.840;9.162;2022-10-16T17:53:51;17.20;99.90
35541;DHT22;21650;48.840;9.162;2022-10-16T17:56:17;17.10;99.90
35541;DHT22;21650;48.840;9.162;2022-10-16T17:58:43;17.00;99.90
35541;DHT22;21650;48.840;9.162;2022-10-16T18:01:14;16.90;99.90
35541;DHT22;21650;48.840;9.162;2022-10-16T18:03:40;16.90;99.90
35541;DHT22;21650;48.840;9.162;2022-10-16T18:06:05;16.90;99.90
35541;DHT22;21650;48.840;9.162;2022-10-16T18:08:31;16.80;99.90
35541;DHT22;21650;48.840;9.162;2022-10-16T18:10:56;16.70;99.90
35541;DHT22;21650;48.840;9.162;2022-10-16T18:13:22;16.70;99.90
35541;DHT22;21650;48.840;9.162;2022-10-16T18:16:01;16.70;99.90
35541;DHT22;21650;48.840;9.162;2022-10-16T18:18:27;16.70;99.90
35541;DHT22;21650;48.840;9.162;2022-10-16T18:20:57;16.60;99.90
35541;DHT22;21650;48.840;9.162;2022-10-16T18:23:23;16.60;99.90
35541;DHT22;21650;48.840;9.162;2022-10-16T18:25:49;16.50;99.90
35541;DHT22;21650;48.840;9.162;2022-10-16T18:28:15;16.50;99.90
35541;DHT22;21650;48.840;9.162;2022-10-16T18:30:40;16.50;99.90
35541;DHT22;21650;48.840;9.162;2022-10-16T18:33:06;16.40;99.90
35541;DHT22;21650;48.840;9.162;2022-10-16T18:35:34;16.40;99.90
35541;DHT22;21650;48.840;9.162;2022-10-16T18:38:00;16.40;99.90
35541;DHT22;21650;48.840;9.162;2022-10-16T18:40:26;16.40;99.90
35541;DHT22;21650;48.840;9.162;2022-10-16T18:42:52;16.30;99.90
35541;DHT22;21650;48.840;9.162;2022-10-16T18:45:18;16.30;99.90
35541;DHT22;21650;48.840;9.162;2022-10-16T18:47:43;16.30;99.90
35541;DHT22;21650;48.840;9.162;2022-10-16T18:50:10;16.30;99.90
35541;DHT22;21650;48.840;9.162;2022-10-16T18:52:36;16.20;99.90
35541;DHT22;21650;48.840;9.162;2022-10-16T18:55:01;16.20;99.90
35541;DHT22;21650;48.840;9.162;2022-10-16T18:57:28;16.20;99.90
35541;DHT22;21650;48.840;9.162;2022-10-16T18:59:54;16.10;99.90
35541;DHT22;21650;48.840;9.162;2022-10-16T19:02:20;16.10;99.90